createdAt,value
2019-02-18T00:00:01.155Z,5.56
2019-02-18T00:01:00.975Z,5.5
2019-02-18T00:02:01.678Z,5.49
2019-02-18T00:03:00.993Z,5.47
2019-02-18T00:04:00.954Z,5.47
2019-02-18T00:05:01.963Z,5.47
2019-02-18T00:06:00.909Z,5.45
2019-02-18T00:07:00.976Z,5.45
2019-02-18T00:08:00.931Z,5.46
2019-02-18T00:09:01.623Z,5.46
2019-02-18T00:10:00.958Z,5.42
2019-02-18T00:11:01.422Z,5.42
2019-02-18T00:12:01.362Z,5.38
2019-02-18T00:13:01.002Z,5.4
2019-02-18T00:14:00.938Z,5.36
2019-02-18T00:15:00.945Z,5.35
2019-02-18T00:16:00.994Z,5.32
2019-02-18T00:17:00.807Z,5.3
2019-02-18T00:18:00.939Z,5.28
2019-02-18T00:19:01.476Z,5.26
2019-02-18T00:20:02.657Z,5.29
2019-02-18T00:21:00.937Z,5.28
2019-02-18T00:22:00.805Z,5.25
2019-02-18T00:23:01.026Z,5.26
2019-02-18T00:24:02.057Z,5.22
2019-02-18T00:25:01.679Z,5.22
2019-02-18T00:26:01.119Z,5.23
2019-02-18T00:27:00.615Z,5.19
2019-02-18T00:28:00.969Z,5.15
2019-02-18T00:29:00.977Z,5.11
2019-02-18T00:30:01.048Z,5.12
2019-02-18T00:31:01.141Z,5.08
2019-02-18T00:32:00.948Z,5.07
2019-02-18T00:33:01.061Z,5.08
2019-02-18T00:34:01.067Z,5.1
2019-02-18T00:35:01.081Z,5.1
2019-02-18T00:36:01.278Z,5.1
2019-02-18T00:37:00.938Z,5.1
2019-02-18T00:38:00.768Z,5.05
2019-02-18T00:39:01.098Z,5.1
2019-02-18T00:40:01.112Z,5.11
2019-02-18T00:41:02.605Z,5.1
2019-02-18T00:42:01.226Z,5.1
2019-02-18T00:43:01.328Z,5.08
2019-02-18T00:44:01.033Z,5.05
2019-02-18T00:45:01.354Z,5.07
2019-02-18T00:46:00.752Z,5.07
2019-02-18T00:47:00.741Z,5.1
2019-02-18T00:48:01.058Z,5.08
2019-02-18T00:49:01.382Z,5.07
2019-02-18T00:50:01.803Z,5.08
2019-02-18T00:51:00.758Z,5.08
2019-02-18T00:52:00.985Z,5.05
2019-02-18T00:53:02.295Z,5.02
2019-02-18T00:54:01.050Z,5.04
2019-02-18T00:55:01.116Z,5.01
2019-02-18T00:56:01.035Z,5
2019-02-18T00:57:00.872Z,5.01
2019-02-18T00:58:00.747Z,5.01
2019-02-18T00:59:01.136Z,5.01
2019-02-18T01:00:01.459Z,5.04
2019-02-18T01:01:02.681Z,4.98
2019-02-18T01:02:01.047Z,4.97
2019-02-18T01:03:01.367Z,5
2019-02-18T01:04:00.798Z,4.98
2019-02-18T01:05:01.067Z,4.98
2019-02-18T01:06:01.608Z,4.98
2019-02-18T01:07:01.118Z,4.97
2019-02-18T01:08:01.096Z,4.94
2019-02-18T01:09:00.827Z,4.87
2019-02-18T01:10:01.317Z,4.87
2019-02-18T01:11:01.426Z,4.8
2019-02-18T01:12:01.234Z,4.84
2019-02-18T01:13:02.559Z,4.87
2019-02-18T01:14:00.922Z,4.79
2019-02-18T01:15:02.565Z,4.81
2019-02-18T01:16:01.149Z,4.83
2019-02-18T01:17:02.574Z,4.79
2019-02-18T01:18:02.553Z,4.74
2019-02-18T01:19:02.551Z,4.77
2019-02-18T01:20:00.983Z,4.74
2019-02-18T01:21:01.070Z,4.77
2019-02-18T01:22:00.801Z,4.74
2019-02-18T01:23:01.301Z,4.69
2019-02-18T01:24:02.554Z,4.7
2019-02-18T01:25:00.999Z,4.72
2019-02-18T01:26:01.615Z,4.69
2019-02-18T01:27:01.109Z,4.67
2019-02-18T01:28:00.697Z,4.67
2019-02-18T01:29:01.139Z,4.66
2019-02-18T01:30:00.874Z,4.65
2019-02-18T01:31:01.070Z,4.65
2019-02-18T01:32:01.144Z,4.65
2019-02-18T01:33:01.207Z,4.65
2019-02-18T01:34:00.810Z,4.62
2019-02-18T01:35:01.050Z,4.59
2019-02-18T01:36:00.725Z,4.59
2019-02-18T01:37:01.141Z,4.59
2019-02-18T01:38:00.980Z,4.62
2019-02-18T01:39:00.990Z,4.59
2019-02-18T01:40:01.092Z,4.6
2019-02-18T01:41:02.532Z,4.57
2019-02-18T01:42:01.554Z,4.6
2019-02-18T01:43:01.125Z,4.59
2019-02-18T01:44:00.955Z,4.59
2019-02-18T01:45:01.028Z,4.6
2019-02-18T01:46:01.146Z,4.6
2019-02-18T01:47:01.147Z,4.6
2019-02-18T01:48:01.261Z,4.59
2019-02-18T01:49:00.736Z,4.6
2019-02-18T01:50:01.274Z,4.57
2019-02-18T01:51:01.984Z,4.56
2019-02-18T01:52:02.524Z,4.59
2019-02-18T01:53:00.899Z,4.57
2019-02-18T01:54:01.199Z,4.56
2019-02-18T01:55:00.656Z,4.56
2019-02-18T01:56:01.610Z,4.57
2019-02-18T01:57:00.912Z,4.6
2019-02-18T01:58:01.285Z,4.59
2019-02-18T01:59:01.136Z,4.55
2019-02-18T02:00:01.234Z,4.59
2019-02-18T02:01:01.136Z,4.56
2019-02-18T02:02:01.168Z,4.57
2019-02-18T02:03:00.729Z,4.57
2019-02-18T02:04:01.055Z,4.56
2019-02-18T02:05:01.372Z,4.55
2019-02-18T02:06:00.822Z,4.49
2019-02-18T02:07:02.491Z,4.49
2019-02-18T02:08:02.728Z,4.48
2019-02-18T02:09:00.702Z,4.43
2019-02-18T02:10:00.774Z,4.35
2019-02-18T02:11:00.703Z,4.35
2019-02-18T02:12:00.626Z,4.38
2019-02-18T02:13:00.903Z,4.35
2019-02-18T02:14:00.917Z,4.36
2019-02-18T02:15:01.642Z,4.33
2019-02-18T02:16:01.049Z,4.33
2019-02-18T02:17:01.044Z,4.35
2019-02-18T02:18:01.848Z,4.36
2019-02-18T02:19:02.498Z,4.36
2019-02-18T02:20:02.214Z,4.36
2019-02-18T02:21:02.480Z,4.36
2019-02-18T02:22:00.791Z,4.35
2019-02-18T02:23:00.890Z,4.35
2019-02-18T02:24:00.906Z,4.38
2019-02-18T02:25:00.686Z,4.36
2019-02-18T02:26:01.315Z,4.39
2019-02-18T02:27:00.799Z,4.38
2019-02-18T02:28:00.604Z,4.38
2019-02-18T02:29:01.640Z,4.3
2019-02-18T02:30:02.516Z,4.35
2019-02-18T02:31:02.142Z,4.29
2019-02-18T02:32:00.992Z,4.3
2019-02-18T02:33:01.359Z,4.24
2019-02-18T02:34:00.649Z,4.19
2019-02-18T02:35:00.629Z,4.15
2019-02-18T02:36:01.172Z,4.19
2019-02-18T02:37:00.712Z,4.18
2019-02-18T02:38:08.367Z,4.19
2019-02-18T02:39:00.912Z,4.18
2019-02-18T02:40:01.305Z,4.19
2019-02-18T02:41:01.410Z,4.15
2019-02-18T02:42:00.676Z,4.18
2019-02-18T02:43:00.672Z,4.19
2019-02-18T02:44:01.454Z,4.15
2019-02-18T02:45:00.707Z,4.18
2019-02-18T02:46:00.582Z,4.18
2019-02-18T02:47:00.691Z,4.15
2019-02-18T02:48:00.970Z,4.12
2019-02-18T02:49:00.921Z,4.14
2019-02-18T02:50:01.077Z,4.14
2019-02-18T02:51:00.759Z,4.11
2019-02-18T02:52:01.069Z,4.11
2019-02-18T02:53:01.080Z,4.11
2019-02-18T02:54:00.703Z,4.08
2019-02-18T02:55:02.428Z,4.05
2019-02-18T02:56:02.415Z,4.05
2019-02-18T02:57:02.411Z,4.02
2019-02-18T02:58:00.949Z,4
2019-02-18T02:59:01.111Z,4.02
2019-02-18T03:00:00.961Z,4.01
2019-02-18T03:01:00.912Z,4.02
2019-02-18T03:02:00.588Z,4
2019-02-18T03:03:01.853Z,3.98
2019-02-18T03:04:00.965Z,3.98
2019-02-18T03:05:01.168Z,4.01
2019-02-18T03:06:01.070Z,4.02
2019-02-18T03:07:00.768Z,4.02
2019-02-18T03:08:00.697Z,4.01
2019-02-18T03:09:00.777Z,4.01
2019-02-18T03:10:00.908Z,4.02
2019-02-18T03:11:00.936Z,4.01
2019-02-18T03:12:00.837Z,4.02
2019-02-18T03:13:00.706Z,3.94
2019-02-18T03:14:00.702Z,3.93
2019-02-18T03:15:02.396Z,3.93
2019-02-18T03:16:00.662Z,3.93
2019-02-18T03:17:00.678Z,3.93
2019-02-18T03:18:00.951Z,3.93
2019-02-18T03:19:00.670Z,3.94
2019-02-18T03:20:00.872Z,3.94
2019-02-18T03:21:00.640Z,3.97
2019-02-18T03:22:01.692Z,3.98
2019-02-18T03:23:01.416Z,3.97
2019-02-18T03:24:00.852Z,3.97
2019-02-18T03:25:01.579Z,3.97
2019-02-18T03:26:00.789Z,3.98
2019-02-18T03:27:00.945Z,3.97
2019-02-18T03:28:00.555Z,3.96
2019-02-18T03:29:02.366Z,3.97
2019-02-18T03:30:00.821Z,3.97
2019-02-18T03:31:01.076Z,3.96
2019-02-18T03:32:00.553Z,3.94
2019-02-18T03:33:00.812Z,3.93
2019-02-18T03:34:00.550Z,3.87
2019-02-18T03:35:01.309Z,3.86
2019-02-18T03:36:00.638Z,3.91
2019-02-18T03:37:00.752Z,3.9
2019-02-18T03:38:00.809Z,3.91
2019-02-18T03:39:00.782Z,3.89
2019-02-18T03:40:00.722Z,3.86
2019-02-18T03:41:03.915Z,3.86
2019-02-18T03:42:01.972Z,3.86
2019-02-18T03:43:00.525Z,3.84
2019-02-18T03:44:01.198Z,3.79
2019-02-18T03:45:00.648Z,3.77
2019-02-18T03:46:02.354Z,3.79
2019-02-18T03:47:00.353Z,3.77
2019-02-18T03:48:00.342Z,3.76
2019-02-18T03:49:00.333Z,3.69
2019-02-18T03:50:00.405Z,3.72
2019-02-18T03:51:00.862Z,3.7
2019-02-18T03:52:00.531Z,3.7
2019-02-18T03:53:00.984Z,3.7
2019-02-18T03:54:00.762Z,3.72
2019-02-18T03:55:00.930Z,3.7
2019-02-18T03:56:00.810Z,3.67
2019-02-18T03:57:00.780Z,3.67
2019-02-18T03:58:00.824Z,3.65
2019-02-18T03:59:01.207Z,3.63
2019-02-18T04:00:00.936Z,3.63
2019-02-18T04:01:00.819Z,3.62
2019-02-18T04:02:01.130Z,3.62
2019-02-18T04:03:00.576Z,3.61
2019-02-18T04:04:02.346Z,3.63
2019-02-18T04:05:00.996Z,3.61
2019-02-18T04:06:00.668Z,3.61
2019-02-18T04:07:01.061Z,3.56
2019-02-18T04:08:01.009Z,3.58
2019-02-18T04:09:02.387Z,3.51
2019-02-18T04:10:00.704Z,3.56
2019-02-18T04:11:00.606Z,3.56
2019-02-18T04:12:00.578Z,3.55
2019-02-18T04:13:00.827Z,3.55
2019-02-18T04:14:00.817Z,3.56
2019-02-18T04:15:00.925Z,3.56
2019-02-18T04:16:00.914Z,3.55
2019-02-18T04:17:00.930Z,3.54
2019-02-18T04:18:00.588Z,3.52
2019-02-18T04:19:00.691Z,3.48
2019-02-18T04:20:01.173Z,3.51
2019-02-18T04:21:00.849Z,3.48
2019-02-18T04:22:00.756Z,3.46
2019-02-18T04:23:00.590Z,3.44
2019-02-18T04:24:00.877Z,3.39
2019-02-18T04:25:00.881Z,3.39
2019-02-18T04:26:00.823Z,3.38
2019-02-18T04:27:00.561Z,3.32
2019-02-18T04:28:00.815Z,3.29
2019-02-18T04:29:00.796Z,3.29
2019-02-18T04:30:00.816Z,3.37
2019-02-18T04:31:01.923Z,3.35
2019-02-18T04:32:01.651Z,3.35
2019-02-18T04:33:00.288Z,3.28
2019-02-18T04:34:00.445Z,3.29
2019-02-18T04:35:00.873Z,3.25
2019-02-18T04:36:00.647Z,3.25
2019-02-18T04:37:00.694Z,3.22
2019-02-18T04:38:00.599Z,3.24
2019-02-18T04:39:02.293Z,3.27
2019-02-18T04:40:00.609Z,3.25
2019-02-18T04:41:00.580Z,3.28
2019-02-18T04:42:00.563Z,3.28
2019-02-18T04:43:00.486Z,3.24
2019-02-18T04:44:01.342Z,3.2
2019-02-18T04:45:00.549Z,3.2
2019-02-18T04:46:00.520Z,3.22
2019-02-18T04:47:00.535Z,3.18
2019-02-18T04:48:00.772Z,3.2
2019-02-18T04:49:01.662Z,3.21
2019-02-18T04:50:00.506Z,3.2
2019-02-18T04:51:00.566Z,3.17
2019-02-18T04:52:02.246Z,3.15
2019-02-18T04:53:00.975Z,3.15
2019-02-18T04:54:00.970Z,3.11
2019-02-18T04:55:00.577Z,3.12
2019-02-18T04:56:01.356Z,3.1
2019-02-18T04:57:00.811Z,3.1
2019-02-18T04:58:00.811Z,3.1
2019-02-18T04:59:00.682Z,3.08
2019-02-18T05:00:01.100Z,3.06
2019-02-18T05:01:03.224Z,3.07
2019-02-18T05:02:00.699Z,3.06
2019-02-18T05:03:01.020Z,2.99
2019-02-18T05:04:00.690Z,2.99
2019-02-18T05:05:00.900Z,2.96
2019-02-18T05:06:00.810Z,2.96
2019-02-18T05:07:02.282Z,2.97
2019-02-18T05:08:01.296Z,2.94
2019-02-18T05:09:06.048Z,2.94
2019-02-18T05:10:00.663Z,2.94
2019-02-18T05:11:00.479Z,2.94
2019-02-18T05:12:00.211Z,2.94
2019-02-18T05:13:02.248Z,2.92
2019-02-18T05:14:00.209Z,2.87
2019-02-18T05:15:00.340Z,2.9
2019-02-18T05:16:00.196Z,2.86
2019-02-18T05:17:00.228Z,2.83
2019-02-18T05:18:00.197Z,2.82
2019-02-18T05:19:00.607Z,2.86
2019-02-18T05:20:00.727Z,2.86
2019-02-18T05:21:00.837Z,2.86
2019-02-18T05:22:01.001Z,2.86
2019-02-18T05:23:00.745Z,2.87
2019-02-18T05:24:00.437Z,2.87
2019-02-18T05:25:01.179Z,2.89
2019-02-18T05:26:00.549Z,2.9
2019-02-18T05:27:00.775Z,2.9
2019-02-18T05:28:00.682Z,2.93
2019-02-18T05:29:02.314Z,2.94
2019-02-18T05:30:00.747Z,2.9
2019-02-18T05:31:01.410Z,2.94
2019-02-18T05:32:00.399Z,2.92
2019-02-18T05:33:00.707Z,2.92
2019-02-18T05:34:00.350Z,2.93
2019-02-18T05:35:00.533Z,2.93
2019-02-18T05:36:00.569Z,2.96
2019-02-18T05:37:02.186Z,2.99
2019-02-18T05:38:01.434Z,2.96
2019-02-18T05:39:00.760Z,2.92
2019-02-18T05:40:02.269Z,2.93
2019-02-18T05:41:00.765Z,2.9
2019-02-18T05:42:01.251Z,2.86
2019-02-18T05:43:00.319Z,2.84
2019-02-18T05:44:00.428Z,2.82
2019-02-18T05:45:00.931Z,2.77
2019-02-18T05:46:00.420Z,2.76
2019-02-18T05:47:02.200Z,2.76
2019-02-18T05:48:00.565Z,2.77
2019-02-18T05:49:00.711Z,2.77
2019-02-18T05:50:00.527Z,2.79
2019-02-18T05:51:00.897Z,2.79
2019-02-18T05:52:00.643Z,2.76
2019-02-18T05:53:00.443Z,2.77
2019-02-18T05:54:00.334Z,2.79
2019-02-18T05:55:00.681Z,2.77
2019-02-18T05:56:01.363Z,2.75
2019-02-18T05:57:00.491Z,2.75
2019-02-18T05:58:00.681Z,2.73
2019-02-18T05:59:00.337Z,2.73
2019-02-18T06:00:01.911Z,2.73
2019-02-18T06:01:02.147Z,2.72
2019-02-18T06:02:01.016Z,2.71
2019-02-18T06:03:00.829Z,2.73
2019-02-18T06:04:00.626Z,2.75
2019-02-18T06:05:01.028Z,2.73
2019-02-18T06:06:00.498Z,2.72
2019-02-18T06:07:02.144Z,2.68
2019-02-18T06:08:00.539Z,2.69
2019-02-18T06:09:01.281Z,2.68
2019-02-18T06:10:00.852Z,2.68
2019-02-18T06:11:00.655Z,2.65
2019-02-18T06:12:00.378Z,2.62
2019-02-18T06:13:00.606Z,2.59
2019-02-18T06:14:00.890Z,2.59
2019-02-18T06:15:00.767Z,2.58
2019-02-18T06:16:00.684Z,2.56
2019-02-18T06:17:03.011Z,2.55
2019-02-18T06:18:01.516Z,2.56
2019-02-18T06:19:00.311Z,2.52
2019-02-18T06:20:00.398Z,2.55
2019-02-18T06:21:02.139Z,2.52
2019-02-18T06:22:01.234Z,2.52
2019-02-18T06:23:02.115Z,2.56
2019-02-18T06:24:00.441Z,2.61
2019-02-18T06:25:00.510Z,2.59
2019-02-18T06:26:00.573Z,2.59
2019-02-18T06:27:00.785Z,2.59
2019-02-18T06:28:00.594Z,2.56
2019-02-18T06:29:00.336Z,2.59
2019-02-18T06:30:00.877Z,2.56
2019-02-18T06:31:00.737Z,2.56
2019-02-18T06:32:00.466Z,2.56
2019-02-18T06:33:01.371Z,2.56
2019-02-18T06:34:00.601Z,2.59
2019-02-18T06:35:00.961Z,2.55
2019-02-18T06:36:01.139Z,2.56
2019-02-18T06:37:00.381Z,2.61
2019-02-18T06:38:00.725Z,2.59
2019-02-18T06:39:00.842Z,2.59
2019-02-18T06:40:00.515Z,2.58
2019-02-18T06:41:00.379Z,2.55
2019-02-18T06:42:00.366Z,2.56
2019-02-18T06:43:00.665Z,2.49
2019-02-18T06:44:01.236Z,2.48
2019-02-18T06:45:01.005Z,2.51
2019-02-18T06:46:01.521Z,2.54
2019-02-18T06:47:00.576Z,2.56
2019-02-18T06:48:00.394Z,2.56
2019-02-18T06:49:02.153Z,2.54
2019-02-18T06:50:02.072Z,2.58
2019-02-18T06:51:00.613Z,2.55
2019-02-18T06:52:00.302Z,2.59
2019-02-18T06:53:00.405Z,2.64
2019-02-18T06:54:02.070Z,2.69
2019-02-18T06:55:00.388Z,2.72
2019-02-18T06:56:00.345Z,2.69
2019-02-18T06:57:00.664Z,2.72
2019-02-18T06:58:00.428Z,2.69
2019-02-18T06:59:00.194Z,2.72
2019-02-18T07:00:00.934Z,2.75
2019-02-18T07:01:00.271Z,2.75
2019-02-18T07:02:00.445Z,2.75
2019-02-18T07:03:00.773Z,2.76
2019-02-18T07:04:00.293Z,2.75
2019-02-18T07:05:00.585Z,2.76
2019-02-18T07:06:01.078Z,2.75
2019-02-18T07:07:00.976Z,2.79
2019-02-18T07:08:00.400Z,2.77
2019-02-18T07:09:00.426Z,2.79
2019-02-18T07:10:01.181Z,2.77
2019-02-18T07:11:00.506Z,2.79
2019-02-18T07:12:00.767Z,2.82
2019-02-18T07:13:00.459Z,2.82
2019-02-18T07:14:00.213Z,2.79
2019-02-18T07:15:00.770Z,2.79
2019-02-18T07:16:00.413Z,2.8
2019-02-18T07:17:00.413Z,2.8
2019-02-18T07:18:00.495Z,2.86
2019-02-18T07:19:00.601Z,2.93
2019-02-18T07:20:00.408Z,2.9
2019-02-18T07:21:00.740Z,2.89
2019-02-18T07:22:00.252Z,2.92
2019-02-18T07:23:00.730Z,2.92
2019-02-18T07:24:00.840Z,2.9
2019-02-18T07:25:00.630Z,2.92
2019-02-18T07:26:00.434Z,2.87
2019-02-18T07:27:00.646Z,2.9
2019-02-18T07:28:00.442Z,2.92
2019-02-18T07:29:01.166Z,2.92
2019-02-18T07:30:01.315Z,2.93
2019-02-18T07:31:00.667Z,2.94
2019-02-18T07:32:02.013Z,2.97
2019-02-18T07:33:00.277Z,3
2019-02-18T07:34:00.387Z,3.03
2019-02-18T07:35:00.723Z,3.03
2019-02-18T07:36:00.499Z,3.07
2019-02-18T07:37:00.201Z,3.11
2019-02-18T07:38:00.595Z,3.11
2019-02-18T07:39:00.444Z,3.12
2019-02-18T07:40:02.608Z,3.14
2019-02-18T07:40:59.989Z,3.17
2019-02-18T07:41:59.991Z,3.18
2019-02-18T07:42:59.992Z,3.25
2019-02-18T07:44:00.556Z,3.25
2019-02-18T07:45:01.383Z,3.28
2019-02-18T07:46:00.152Z,3.31
2019-02-18T07:47:01.356Z,3.32
2019-02-18T07:48:00.688Z,3.34
2019-02-18T07:49:00.483Z,3.35
2019-02-18T07:50:00.393Z,3.39
2019-02-18T07:51:01.995Z,3.41
2019-02-18T07:51:59.978Z,3.46
2019-02-18T07:53:02.005Z,3.48
2019-02-18T07:54:00.151Z,3.52
2019-02-18T07:55:00.370Z,3.54
2019-02-18T07:56:00.532Z,3.59
2019-02-18T07:57:00.129Z,3.62
2019-02-18T07:58:00.665Z,3.66
2019-02-18T07:59:00.445Z,3.7
2019-02-18T08:00:00.357Z,3.7
2019-02-18T08:01:00.664Z,3.72
2019-02-18T08:02:00.297Z,3.79
2019-02-18T08:03:00.375Z,3.79
2019-02-18T08:04:00.128Z,3.82
2019-02-18T08:05:02.778Z,3.89
2019-02-18T08:06:00.414Z,3.9
2019-02-18T08:07:00.647Z,3.93
2019-02-18T08:08:00.509Z,3.96
2019-02-18T08:09:00.779Z,4
2019-02-18T08:10:00.283Z,4.01
2019-02-18T08:11:00.423Z,4.04
2019-02-18T08:12:00.196Z,4.08
2019-02-18T08:13:00.638Z,4.1
2019-02-18T08:14:01.569Z,4.17
2019-02-18T08:15:00.446Z,4.21
2019-02-18T08:16:00.390Z,4.25
2019-02-18T08:17:00.174Z,4.26
2019-02-18T08:18:00.368Z,4.29
2019-02-18T08:19:00.499Z,4.3
2019-02-18T08:20:00.512Z,4.39
2019-02-18T08:21:00.506Z,4.39
2019-02-18T08:22:00.111Z,4.43
2019-02-18T08:23:01.156Z,4.45
2019-02-18T08:24:00.676Z,4.45
2019-02-18T08:25:00.968Z,4.51
2019-02-18T08:26:00.425Z,4.56
2019-02-18T08:27:00.288Z,4.57
2019-02-18T08:28:00.746Z,4.62
2019-02-18T08:29:00.282Z,4.67
2019-02-18T08:30:00.405Z,4.72
2019-02-18T08:31:00.301Z,4.74
2019-02-18T08:32:01.939Z,4.81
2019-02-18T08:33:00.473Z,4.83
2019-02-18T08:34:01.938Z,4.84
2019-02-18T08:35:00.959Z,4.9
2019-02-18T08:36:01.519Z,4.95
2019-02-18T08:37:00.495Z,4.94
2019-02-18T08:38:00.314Z,4.98
2019-02-18T08:39:00.508Z,5.07
2019-02-18T08:40:00.514Z,5.04
2019-02-18T08:41:01.022Z,5.08
2019-02-18T08:42:00.329Z,5.12
2019-02-18T08:43:00.382Z,5.16
2019-02-18T08:44:00.347Z,5.21
2019-02-18T08:45:00.372Z,5.23
2019-02-18T08:46:00.459Z,5.26
2019-02-18T08:47:00.935Z,5.29
2019-02-18T08:48:00.367Z,5.38
2019-02-18T08:49:00.066Z,5.4
2019-02-18T08:50:01.053Z,5.4
2019-02-18T08:51:00.381Z,5.47
2019-02-18T08:52:00.067Z,5.54
2019-02-18T08:53:00.071Z,5.59
2019-02-18T08:54:00.299Z,5.63
2019-02-18T08:55:01.904Z,5.63
2019-02-18T08:56:00.074Z,5.71
2019-02-18T08:57:01.082Z,5.74
2019-02-18T08:58:01.493Z,5.81
2019-02-18T08:59:00.093Z,5.8
2019-02-18T09:00:01.296Z,5.87
2019-02-18T09:01:03.153Z,5.9
2019-02-18T09:02:00.461Z,5.94
2019-02-18T09:03:00.970Z,6
2019-02-18T09:04:00.364Z,6.05
2019-02-18T09:05:00.478Z,6.06
2019-02-18T09:06:00.103Z,6.11
2019-02-18T09:07:00.063Z,6.12
2019-02-18T09:08:00.392Z,6.15
2019-02-18T09:09:00.232Z,6.19
2019-02-18T09:10:00.044Z,6.23
2019-02-18T09:11:00.064Z,6.28
2019-02-18T09:12:00.635Z,6.33
2019-02-18T09:13:00.333Z,6.36
2019-02-18T09:14:00.033Z,6.36
2019-02-18T09:14:59.999Z,6.43
2019-02-18T09:16:00.819Z,6.44
2019-02-18T09:17:00.133Z,6.47
2019-02-18T09:18:00.211Z,6.5
2019-02-18T09:19:00.978Z,6.57
2019-02-18T09:20:00.920Z,6.63
2019-02-18T09:21:00.975Z,6.64
2019-02-18T09:22:00.392Z,6.68
2019-02-18T09:23:00.324Z,6.75
2019-02-18T09:24:00.309Z,6.77
2019-02-18T09:25:00.031Z,6.8
2019-02-18T09:26:01.851Z,6.83
2019-02-18T09:27:00.416Z,6.84
2019-02-18T09:28:00.073Z,6.87
2019-02-18T09:29:00.076Z,6.91
2019-02-18T09:30:00.014Z,6.94
2019-02-18T09:31:02.325Z,6.95
2019-02-18T09:32:00.246Z,6.98
2019-02-18T09:33:00.315Z,6.99
2019-02-18T09:34:00.055Z,7.02
2019-02-18T09:35:02.472Z,7.06
2019-02-18T09:36:00.183Z,7.09
2019-02-18T09:37:00.078Z,7.11
2019-02-18T09:38:00.800Z,7.16
2019-02-18T09:39:00.294Z,7.22
2019-02-18T09:40:00.361Z,7.27
2019-02-18T09:41:00.520Z,7.29
2019-02-18T09:42:00.315Z,7.34
2019-02-18T09:43:00.337Z,7.4
2019-02-18T09:43:59.977Z,7.47
2019-02-18T09:45:00.459Z,7.48
2019-02-18T09:46:00.028Z,7.51
2019-02-18T09:47:00.448Z,7.54
2019-02-18T09:48:00.358Z,7.54
2019-02-18T09:49:00.064Z,7.57
2019-02-18T09:50:00.389Z,7.59
2019-02-18T09:51:00.542Z,7.68
2019-02-18T09:51:59.973Z,7.69
2019-02-18T09:53:02.766Z,7.72
2019-02-18T09:54:00.294Z,7.77
2019-02-18T09:55:00.416Z,7.8
2019-02-18T09:56:00.213Z,7.82
2019-02-18T09:57:00.140Z,7.91
2019-02-18T09:58:00.050Z,7.92
2019-02-18T09:59:00.039Z,7.88
2019-02-18T09:59:59.985Z,7.92
2019-02-18T10:01:01.096Z,7.98
2019-02-18T10:02:00.450Z,7.99
2019-02-18T10:03:01.792Z,8.03
2019-02-18T10:04:01.801Z,8.05
2019-02-18T10:05:00.556Z,8.1
2019-02-18T10:06:00.011Z,8.13
2019-02-18T10:07:00.287Z,8.12
2019-02-18T10:08:00.068Z,8.14
2019-02-18T10:09:00.398Z,8.23
2019-02-18T10:10:00.048Z,8.26
2019-02-18T10:11:00.208Z,8.31
2019-02-18T10:12:00.013Z,8.33
2019-02-18T10:13:01.769Z,8.4
2019-02-18T10:14:00.009Z,8.44
2019-02-18T10:15:00.058Z,8.47
2019-02-18T10:16:01.145Z,8.57
2019-02-18T10:17:00.353Z,8.57
2019-02-18T10:18:00.012Z,8.62
2019-02-18T10:19:00.278Z,8.61
2019-02-18T10:20:02.287Z,8.66
2019-02-18T10:21:00.041Z,8.65
2019-02-18T10:22:00.803Z,8.69
2019-02-18T10:23:00.185Z,8.72
2019-02-18T10:24:00.347Z,8.72
2019-02-18T10:25:00.254Z,8.74
2019-02-18T10:26:01.031Z,8.79
2019-02-18T10:26:59.764Z,8.79
2019-02-18T10:28:01.773Z,8.85
2019-02-18T10:28:59.972Z,8.88
2019-02-18T10:30:00.643Z,8.91
2019-02-18T10:30:59.736Z,9.02
2019-02-18T10:31:59.744Z,9.1
2019-02-18T10:32:59.735Z,9.2
2019-02-18T10:34:01.362Z,9.27
2019-02-18T10:35:00.002Z,9.33
2019-02-18T10:35:59.982Z,9.33
2019-02-18T10:36:59.897Z,9.3
2019-02-18T10:38:00.089Z,9.33
2019-02-18T10:38:59.868Z,9.4
2019-02-18T10:40:00.250Z,9.45
2019-02-18T10:41:07.403Z,9.51
2019-02-18T10:42:00.069Z,9.54
2019-02-18T10:43:00.007Z,9.61
2019-02-18T10:43:59.923Z,9.61
2019-02-18T10:45:00.006Z,9.61
2019-02-18T10:46:00.554Z,9.66
2019-02-18T10:46:59.972Z,9.66
2019-02-18T10:48:00.365Z,9.7
2019-02-18T10:49:00.287Z,9.76
2019-02-18T10:49:59.989Z,9.79
2019-02-18T10:51:00.008Z,9.86
2019-02-18T10:52:01.740Z,9.9
2019-02-18T10:53:00.770Z,9.97
2019-02-18T10:54:00.736Z,9.93
2019-02-18T10:55:00.869Z,9.96
2019-02-18T10:56:00.223Z,10
2019-02-18T10:57:00.026Z,10.09
2019-02-18T10:57:59.932Z,10.09
2019-02-18T10:59:00.537Z,10.14
2019-02-18T11:00:00.438Z,10.3
2019-02-18T11:01:00.002Z,10.37
2019-02-18T11:02:01.195Z,10.44
2019-02-18T11:03:00.271Z,10.42
2019-02-18T11:03:59.951Z,10.44
2019-02-18T11:05:00.701Z,10.51
2019-02-18T11:06:00.180Z,10.52
2019-02-18T11:07:00.690Z,10.52
2019-02-18T11:07:59.972Z,10.56
2019-02-18T11:09:00.084Z,10.59
2019-02-18T11:10:00.398Z,10.66
2019-02-18T11:10:59.945Z,10.68
2019-02-18T11:12:00.014Z,10.72
2019-02-18T11:13:00.551Z,10.83
2019-02-18T11:14:00.047Z,10.92
2019-02-18T11:15:01.009Z,10.84
2019-02-18T11:16:01.685Z,10.84
2019-02-18T11:16:59.683Z,10.82
2019-02-18T11:17:59.679Z,10.89
2019-02-18T11:18:59.689Z,10.93
2019-02-18T11:19:59.676Z,10.96
2019-02-18T11:21:00.605Z,11.03
2019-02-18T11:22:00.047Z,11.12
2019-02-18T11:23:00.598Z,11.15
2019-02-18T11:24:00.098Z,11.22
2019-02-18T11:25:00.428Z,11.27
2019-02-18T11:26:01.078Z,11.42
2019-02-18T11:27:00.418Z,11.44
2019-02-18T11:28:00.117Z,11.51
2019-02-18T11:29:00.863Z,11.58
2019-02-18T11:30:01.681Z,11.65
2019-02-18T11:31:00.254Z,11.72
2019-02-18T11:31:59.813Z,11.73
2019-02-18T11:33:00.669Z,11.8
2019-02-18T11:34:00.015Z,11.87
2019-02-18T11:35:01.045Z,11.83
2019-02-18T11:35:59.963Z,11.86
2019-02-18T11:37:01.253Z,11.93
2019-02-18T11:37:59.859Z,11.96
2019-02-18T11:39:00.089Z,12.04
2019-02-18T11:40:00.528Z,12.07
2019-02-18T11:41:00.075Z,12.08
2019-02-18T11:42:00.115Z,12.13
2019-02-18T11:43:00.538Z,12.21
2019-02-18T11:44:00.634Z,12.24
2019-02-18T11:45:00.667Z,12.27
2019-02-18T11:46:00.163Z,12.31
2019-02-18T11:47:00.450Z,12.32
2019-02-18T11:48:00.071Z,12.37
2019-02-18T11:49:00.068Z,12.28
2019-02-18T11:50:00.422Z,12.32
2019-02-18T11:51:01.609Z,12.35
2019-02-18T11:52:00.310Z,12.42
2019-02-18T11:53:01.129Z,12.46
2019-02-18T11:54:01.637Z,12.57
2019-02-18T11:55:00.323Z,12.62
2019-02-18T11:56:00.021Z,12.65
2019-02-18T11:56:59.957Z,12.66
2019-02-18T11:57:59.978Z,12.69
2019-02-18T11:59:00.838Z,12.73
2019-02-18T12:00:00.778Z,12.79
2019-02-18T12:01:00.981Z,12.82
2019-02-18T12:02:00.067Z,12.9
2019-02-18T12:03:12.538Z,12.9
2019-02-18T12:03:59.938Z,12.93
2019-02-18T12:04:59.985Z,12.99
2019-02-18T12:06:00.089Z,13.03
2019-02-18T12:06:59.824Z,13.06
2019-02-18T12:07:59.912Z,13.11
2019-02-18T12:09:00.930Z,13.18
2019-02-18T12:10:01.044Z,13.28
2019-02-18T12:11:00.029Z,13.22
2019-02-18T12:12:00.138Z,13.21
2019-02-18T12:12:59.865Z,13.19
2019-02-18T12:14:00.048Z,13.24
2019-02-18T12:15:00.403Z,13.31
2019-02-18T12:16:00.880Z,13.36
2019-02-18T12:17:00.165Z,13.35
2019-02-18T12:17:59.774Z,13.39
2019-02-18T12:19:00.024Z,13.42
2019-02-18T12:20:00.479Z,13.42
2019-02-18T12:20:59.973Z,13.52
2019-02-18T12:22:01.048Z,13.57
2019-02-18T12:23:01.006Z,13.64
2019-02-18T12:24:00.091Z,13.74
2019-02-18T12:24:59.989Z,13.82
2019-02-18T12:26:00.126Z,13.84
2019-02-18T12:27:00.731Z,13.91
2019-02-18T12:28:00.040Z,13.96
2019-02-18T12:29:00.052Z,13.97
2019-02-18T12:30:00.057Z,13.97
2019-02-18T12:31:00.463Z,13.98
2019-02-18T12:31:59.867Z,13.98
2019-02-18T12:33:01.640Z,14.05
2019-02-18T12:33:59.912Z,14.14
2019-02-18T12:34:59.832Z,14.18
2019-02-18T12:36:00.059Z,14.24
2019-02-18T12:36:59.873Z,14.19
2019-02-18T12:37:59.979Z,14.27
2019-02-18T12:39:00.323Z,14.27
2019-02-18T12:39:59.782Z,14.28
2019-02-18T12:41:00.123Z,14.33
2019-02-18T12:42:00.026Z,14.42
2019-02-18T12:43:00.115Z,14.4
2019-02-18T12:44:00.126Z,14.43
2019-02-18T12:45:01.251Z,14.43
2019-02-18T12:45:59.793Z,14.48
2019-02-18T12:47:00.673Z,14.62
2019-02-18T12:47:59.997Z,14.6
2019-02-18T12:49:00.029Z,14.64
2019-02-18T12:49:59.991Z,14.72
2019-02-18T12:50:59.802Z,14.74
2019-02-18T12:52:00.022Z,14.72
2019-02-18T12:52:59.832Z,14.7
2019-02-18T12:54:05.606Z,14.77
2019-02-18T12:55:01.098Z,14.83
2019-02-18T12:56:00.210Z,14.91
2019-02-18T12:57:00.132Z,15
2019-02-18T12:58:01.604Z,15.07
2019-02-18T12:58:59.860Z,15.11
2019-02-18T13:00:01.019Z,15.14
2019-02-18T13:00:59.990Z,15.12
2019-02-18T13:01:59.881Z,14.98
2019-02-18T13:03:01.585Z,14.86
2019-02-18T13:03:59.787Z,14.87
2019-02-18T13:05:00.424Z,14.88
2019-02-18T13:06:00.619Z,14.94
2019-02-18T13:07:00.748Z,14.95
2019-02-18T13:08:03.071Z,14.94
2019-02-18T13:09:00.006Z,14.88
2019-02-18T13:10:00.034Z,14.79
2019-02-18T13:11:00.712Z,14.84
2019-02-18T13:12:00.049Z,14.9
2019-02-18T13:13:00.134Z,14.94
2019-02-18T13:14:00.040Z,14.88
2019-02-18T13:15:01.597Z,14.94
2019-02-18T13:16:00.568Z,14.94
2019-02-18T13:17:00.067Z,14.91